• Join FlightAware (Why Join?)
  • Login
  • US Flag 
02:39AM EDT


 

Airport Tracker/Info


-or-


 

Live Flight TrackerFlight Track Log ✈ ELO229 ✈ 09-May-2012 ✈ EPKK / KRK - LOWW / VIE

Flight Track Log - Related Links

Times and Time Zones

All times are in EDT time to prevent confusion due to time zone crossing. See the ELO229 flight status page for this flight to view local times or setup timezone preferences in your user account.

Time Position Orientation Groundspeed Altitude Reporting Facility
EDT Latitude Longitude Course Direction KTS MPH feet Rate Location/Type
12:40PM 50.0200 19.6845 228° Southwest  Level Estimated
12:41PM 49.9823 19.6192 228° Southwest  Level Estimated
12:42PM 49.9445 19.5541 228° Southwest  Level Estimated
12:43PM 49.9068 19.4890 228° Southwest  Level Estimated
12:44PM 49.8690 19.4240 228° Southwest  Level Estimated
12:45PM 49.8311 19.3591 228° Southwest  Level Estimated
12:46PM 49.7932 19.2944 228° Southwest  Level Estimated
12:47PM 49.7553 19.2297 228° Southwest  Level Estimated
12:48PM 49.7173 19.1651 228° Southwest  Level Estimated
12:49PM 49.6794 19.1006 228° Southwest  Level Estimated
12:50PM 49.6413 19.0363 228° Southwest  Level Estimated
12:51PM 49.6033 18.9720 228° Southwest  Level Estimated
12:52PM 49.5652 18.9078 227° Southwest  Level Estimated
12:53PM 49.5270 18.8438 227° Southwest  Level Estimated
12:54PM 49.4888 18.7798 227° Southwest  Level Estimated
12:55PM 49.4506 18.7159 227° Southwest  Level Estimated
12:56PM 49.4124 18.6521 227° Southwest  Level Estimated
12:57PM 49.3741 18.5885 227° Southwest  Level Estimated
12:58PM 49.3358 18.5249 227° Southwest  Level Estimated
12:59PM 49.2975 18.4614 227° Southwest  Level Estimated
01:00PM 49.2591 18.3981 227° Southwest  Level Estimated
01:01PM 49.2207 18.3348 227° Southwest  Level Estimated
01:02PM 49.1822 18.2716 227° Southwest  Level Estimated
01:03PM 49.1437 18.2085 227° Southwest  Level Estimated
01:04PM 49.1052 18.1455 227° Southwest  Level Estimated
01:05PM 49.0667 18.0827 227° Southwest  Level Estimated
01:06PM 49.0281 18.0199 227° Southwest  Level Estimated
01:07PM 48.9895 17.9572 227° Southwest  Level Estimated
01:08PM 48.9508 17.8946 227° Southwest  Level Estimated
01:09PM 48.9121 17.8321 227° Southwest  Level Estimated
01:10PM 48.8734 17.7697 227° Southwest  Level Estimated
01:11PM 48.8346 17.7074 227° Southwest  Level Estimated
01:12PM 48.7959 17.6452 227° Southwest  Level Estimated
01:13PM 48.7570 17.5831 226° Southwest  Level Estimated
01:14PM 48.7182 17.5211 226° Southwest  Level Estimated
01:15PM 48.6793 17.4591 226° Southwest  Level Estimated
01:16PM 48.6404 17.3973 226° Southwest  Level Estimated
01:17PM 48.6014 17.3356 226° Southwest  Level Estimated
01:18PM 48.5624 17.2740 226° Southwest  Level Estimated
01:19PM 48.5234 17.2124 226° Southwest  Level Estimated
01:20PM 48.4843 17.1510 226° Southwest  Level Estimated
01:21PM 48.4453 17.0896 226° Southwest  Level Estimated
01:22PM 48.4061 17.0284 226° Southwest  Level Estimated
01:23PM 48.3670 16.9672 226° Southwest  Level Estimated
01:24PM 48.3278 16.9062 226° Southwest  Level Estimated
01:25PM 48.2886 16.8452 226° Southwest  Level Estimated
01:26PM 48.2493 16.7843 226° Southwest  Level Estimated
01:27PM 48.2101 16.7235 226° Southwest  Level Estimated
01:28PM 48.1707 16.6628 226° Southwest  Level Estimated
01:29PM 48.1314 16.6022 226° Southwest  Level Estimated
01:30PM 48.0920 16.5417 46° Northeast  Level Estimated
01:31PM 48.1314 16.6022 226° Southwest  Level Estimated
01:32PM 48.0920 16.5417 46° Northeast  Level Estimated
01:33PM 48.1314 16.6022 226° Southwest  Level Estimated
01:34PM 48.0920 16.5417 46° Northeast  Level Estimated
01:35PM 48.1314 16.6022 226° Southwest  Level Estimated
01:36PM 48.0920 16.5417 46° Northeast  Level Estimated
01:37PM 48.1314 16.6022 226° Southwest  Level Estimated
01:38PM 48.0920 16.5417 46° Northeast  Level Estimated
01:39PM 48.1314 16.6022 46° Northeast  Level Estimated